Al Nefud — 9HA3723 — position and weather

sailwx.info

Track history (hours):
 
Tides and Currents Weather Stations Pressure Air Temp Water Temp Dewpoint Dewpoint Depression Visibility Wind Speed Wind Dir Waves Ship Positions

Al Nefud

Last reported at 2018-May-25 22:30 UTC. Time now 2018-May-28 09:53 UTC.
Position N 23°54' E 059°13'.

Length 400 m; draft 12.6 m.

Type: Ship. MMSI: 229926000.

Date/timePositionNaut miles runAvg speedWind from/ knotsBaromVisibWave heightAir tempDewpointWater temp
2018-May-25 22:30N 23°54' E 059°13'1016.8
2018-May-25 21:53N 24°00' E 059°05'1017.0
2018-May-25 21:18N 24°07' E 058°57'516.9
2018-May-25 21:00N 24°11' E 058°53'916.9
2018-May-25 20:29N 24°17' E 058°46'816.8
2018-May-25 19:59N 24°22' E 058°39'  
2018-May-21 21:27N 19°18' E 058°26'817.5
2018-May-21 21:00N 19°11' E 058°21'917.4
2018-May-21 20:29N 19°04' E 058°16'917.5
2018-May-21 19:59N 18°56' E 058°11'1817.1
2018-May-21 18:55N 18°41' E 058°00'1917.2
2018-May-21 17:49N 18°25' E 057°49'2717.8
2018-May-21 16:19N 18°03' E 057°33'718.0
2018-May-21 15:55N 17°58' E 057°28'  
2018-May-16 04:17N 31°02' E 032°19'3 8.4
2018-May-16 03:55N 31°05' E 032°19'22 8.0
2018-May-16 01:07N 31°27' E 032°24'1 7.2
2018-May-16 01:00N 31°27' E 032°23'  
Track history (hours):
 
Tides and Currents Weather Stations Pressure Air Temp Water Temp Dewpoint Dewpoint Depression Visibility Wind Speed Wind Dir Waves Ship Positions

Al Nefud

Last reported at 2018-May-25 22:30 UTC. Time now 2018-May-28 09:53 UTC.
Position N 23°54' E 059°13'.

Length 400 m; draft 12.6 m.

Type: Ship. MMSI: 229926000.

Date/timePositionNaut miles runAvg speedWind from/ knotsBaromVisibWave heightAir tempDewpointWater temp
2018-May-25 22:30N 23°54' E 059°13'1016.8
2018-May-25 21:53N 24°00' E 059°05'1017.0
2018-May-25 21:18N 24°07' E 058°57'516.9
2018-May-25 21:00N 24°11' E 058°53'916.9
2018-May-25 20:29N 24°17' E 058°46'816.8
2018-May-25 19:59N 24°22' E 058°39'  
2018-May-21 21:27N 19°18' E 058°26'817.5
2018-May-21 21:00N 19°11' E 058°21'917.4
2018-May-21 20:29N 19°04' E 058°16'917.5
2018-May-21 19:59N 18°56' E 058°11'1817.1
2018-May-21 18:55N 18°41' E 058°00'1917.2
2018-May-21 17:49N 18°25' E 057°49'2717.8
2018-May-21 16:19N 18°03' E 057°33'718.0
2018-May-21 15:55N 17°58' E 057°28'  
2018-May-16 04:17N 31°02' E 032°19'3 8.4
2018-May-16 03:55N 31°05' E 032°19'22 8.0
2018-May-16 01:07N 31°27' E 032°24'1 7.2
2018-May-16 01:00N 31°27' E 032°23'  

Dump ship's entire track history